Time;durP1;ratioP1;P1;durP2;ratioP2;P2;SDS_P1;SDS_P2;PMS_P1;PMS_P2;Temp;Humidity;BMP_temperature;BMP_pressure;BME280_temperature;BME280_humidity;BME280_pressure;Samples;Min_cycle;Max_cycle;Signal;HPM_P1;HPM_P2
2021/09/26 06:02:23;;;;;;;38.60;26.40;;;15.60;99.90;;;;;;5101726;23;20061;-83
2021/09/26 06:04:51;;;;;;;40.30;26.67;;;15.60;99.90;;;;;;4991001;28;20042;-82
2021/09/26 06:07:18;;;;;;;42.22;26.52;;;15.60;99.90;;;;;;4991678;28;20483;-82
2021/09/26 06:09:45;;;;;;;34.85;24.73;;;15.50;99.90;;;;;;4991829;28;20054;-82
2021/09/26 06:12:12;;;;;;;38.92;26.20;;;15.50;99.90;;;;;;4991796;28;20046;-83
2021/09/26 06:14:40;;;;;;;37.55;25.45;;;15.50;99.90;;;;;;4991863;28;20047;-82
2021/09/26 06:17:07;;;;;;;35.95;25.60;;;15.50;99.90;;;;;;4990037;28;20050;-83
2021/09/26 06:19:34;;;;;;;33.67;24.50;;;15.50;99.90;;;;;;4992315;28;20046;-82
2021/09/26 06:22:01;;;;;;;35.17;24.02;;;15.50;99.90;;;;;;4991879;28;20054;-82
2021/09/26 06:24:28;;;;;;;32.38;24.55;;;15.50;99.90;;;;;;4991947;28;20047;-82
2021/09/26 06:26:55;;;;;;;32.00;23.27;;;15.50;99.90;;;;;;4991707;28;20042;-82
2021/09/26 06:29:22;;;;;;;38.38;24.70;;;15.50;99.90;;;;;;4990836;28;20050;-82
2021/09/26 06:31:48;;;;;;;36.75;23.35;;;15.50;99.90;;;;;;4991780;28;20062;-82
2021/09/26 06:34:16;;;;;;;32.40;23.13;;;15.50;99.90;;;;;;4991147;28;20066;-83
2021/09/26 06:36:43;;;;;;;31.63;22.80;;;15.50;99.90;;;;;;4987638;28;20416;-83
2021/09/26 06:39:14;;;;;;;34.65;23.13;;;15.50;99.90;;;;;;4991026;28;20108;-82
2021/09/26 06:41:41;;;;;;;40.13;24.42;;;15.50;99.90;;;;;;4991267;28;20089;-82
2021/09/26 06:44:08;;;;;;;34.10;23.52;;;15.50;99.90;;;;;;4990932;28;20586;-82
2021/09/26 06:46:38;;;;;;;40.72;23.05;;;15.50;99.90;;;;;;4991408;28;20093;-82
2021/09/26 06:49:05;;;;;;;29.92;21.98;;;15.50;99.90;;;;;;4975534;28;20050;-82
2021/09/26 06:51:34;;;;;;;31.00;22.30;;;15.50;99.90;;;;;;5002741;28;20046;-83
2021/09/26 06:54:01;;;;;;;29.70;22.55;;;15.50;99.90;;;;;;5011439;28;20104;-82
2021/09/26 06:56:28;;;;;;;36.92;22.88;;;15.50;99.90;;;;;;5010168;28;20092;-83
2021/09/26 06:58:55;;;;;;;34.47;21.92;;;15.50;99.90;;;;;;5010397;28;20057;-83
2021/09/26 07:01:23;;;;;;;27.30;21.40;;;15.60;99.90;;;;;;5009931;28;20101;-82
2021/09/26 07:03:50;;;;;;;28.73;21.90;;;15.60;99.90;;;;;;5010705;28;20069;-82
2021/09/26 07:06:17;;;;;;;26.13;21.25;;;15.70;99.90;;;;;;5010340;28;20089;-82
2021/09/26 07:08:44;;;;;;;28.20;22.55;;;15.70;99.90;;;;;;5010323;28;20077;-82
2021/09/26 07:11:10;;;;;;;28.45;22.17;;;15.80;99.90;;;;;;4992328;28;20046;-82
2021/09/26 07:13:38;;;;;;;32.60;22.55;;;15.80;99.90;;;;;;5012879;28;20051;-82
2021/09/26 07:16:05;;;;;;;27.08;21.42;;;15.90;99.90;;;;;;4991079;28;20074;-83
2021/09/26 07:18:32;;;;;;;24.63;20.65;;;16.00;99.90;;;;;;4990910;28;20046;-82
2021/09/26 07:20:59;;;;;;;24.30;20.05;;;16.00;99.90;;;;;;4981860;28;20054;-81
2021/09/26 07:23:26;;;;;;;36.90;21.15;;;16.10;99.90;;;;;;4983183;28;20085;-82
2021/09/26 07:25:53;;;;;;;26.05;18.65;;;16.10;99.90;;;;;;4996850;28;20050;-82
2021/09/26 07:28:20;;;;;;;31.35;21.25;;;16.20;99.90;;;;;;4974239;28;20113;-82
2021/09/26 07:30:47;;;;;;;22.95;18.35;;;16.20;99.90;;;;;;4998047;28;20050;-82
2021/09/26 07:33:20;;;;;;;28.55;19.23;;;16.20;99.90;;;;;;4988561;28;20050;-82
2021/09/26 07:35:49;;;;;;;34.97;19.25;;;16.30;99.90;;;;;;5000734;28;20049;-83
2021/09/26 07:38:16;;;;;;;24.55;19.83;;;16.30;99.90;;;;;;5003903;28;20435;-81
2021/09/26 07:40:43;;;;;;;26.73;20.60;;;16.40;99.90;;;;;;5003124;28;20037;-83
2021/09/26 07:43:10;;;;;;;25.73;20.90;;;16.40;99.90;;;;;;4978850;28;20054;-82
2021/09/26 07:45:53;;;;;;;24.45;20.50;;;16.40;99.90;;;;;;4977945;28;20057;-82
2021/09/26 07:48:22;;;;;;;26.80;19.48;;;16.50;99.90;;;;;;4982210;28;20057;-82
2021/09/26 07:50:51;;;;;;;31.23;19.30;;;16.50;99.90;;;;;;5000895;28;20050;-81
2021/09/26 07:53:18;;;;;;;;;;;16.60;99.90;;;;;;4983121;28;20057;-83
2021/09/26 07:55:47;;;;;;;26.77;18.92;;;16.70;99.90;;;;;;4995992;28;20339;-82
2021/09/26 07:58:14;;;;;;;;;;;16.70;99.90;;;;;;4978833;28;20046;-82
2021/09/26 08:00:41;;;;;;;26.10;18.33;;;16.80;99.90;;;;;;4984245;28;20327;-82
2021/09/26 08:03:17;;;;;;;25.73;18.98;;;16.90;99.90;;;;;;4981717;28;20594;-82
2021/09/26 08:05:44;;;;;;;22.45;18.42;;;16.90;99.90;;;;;;4983525;28;20056;-82
2021/09/26 08:08:11;;;;;;;20.58;17.48;;;17.00;99.90;;;;;;4984308;28;20100;-82
2021/09/26 08:10:39;;;;;;;23.92;17.88;;;17.20;99.90;;;;;;4977812;28;20058;-82
2021/09/26 08:13:05;;;;;;;20.60;17.73;;;17.30;99.90;;;;;;4982427;28;20049;-82
2021/09/26 08:15:33;;;;;;;20.58;16.17;;;17.30;99.90;;;;;;4986381;28;20056;-82
2021/09/26 08:18:00;;;;;;;17.23;15.25;;;17.40;99.90;;;;;;5001004;28;20054;-82
2021/09/26 08:20:28;;;;;;;19.83;15.60;;;17.40;99.90;;;;;;4990014;28;20415;-82
2021/09/26 08:22:55;;;;;;;15.68;13.52;;;17.50;99.90;;;;;;5000372;28;20052;-83
2021/09/26 08:25:22;;;;;;;18.13;11.00;;;17.50;99.90;;;;;;4985158;28;20504;-83
2021/09/26 08:27:54;;;;;;;13.60;11.32;;;17.60;99.90;;;;;;4989022;28;20909;-82
2021/09/26 08:30:21;;;;;;;14.57;10.63;;;17.60;99.90;;;;;;4981795;28;20508;-82
2021/09/26 08:32:48;;;;;;;11.05;9.90;;;17.70;99.90;;;;;;4967634;28;20054;-82
2021/09/26 08:35:16;;;;;;;13.82;8.50;;;17.70;99.90;;;;;;4999354;28;20038;-81
2021/09/26 08:37:43;;;;;;;11.10;8.18;;;17.70;99.90;;;;;;4986638;28;20065;-81
2021/09/26 08:40:11;;;;;;;11.18;7.95;;;17.70;99.90;;;;;;4988701;28;20108;-81
2021/09/26 08:42:39;;;;;;;15.80;7.95;;;17.70;99.90;;;;;;5000265;28;20526;-81
2021/09/26 08:45:10;;;;;;;10.45;7.97;;;17.70;99.90;;;;;;5003185;28;20132;-80
2021/09/26 08:47:39;;;;;;;11.27;7.90;;;17.70;99.90;;;;;;4999862;28;20061;-81
2021/09/26 08:50:08;;;;;;;;;;;17.80;99.90;;;;;;5008153;28;20050;-81
2021/09/26 08:52:35;;;;;;;11.88;7.82;;;17.80;99.90;;;;;;4996328;28;20292;-80
2021/09/26 08:55:04;;;;;;;9.50;7.88;;;17.80;99.90;;;;;;5007785;28;20096;-81
2021/09/26 08:57:31;;;;;;;14.10;8.70;;;17.80;99.90;;;;;;4995930;28;20050;-81
2021/09/26 08:59:58;;;;;;;13.98;8.32;;;17.80;99.90;;;;;;4984624;28;20045;-82
2021/09/26 09:02:25;;;;;;;13.98;8.57;;;17.80;99.90;;;;;;4966191;28;20133;-81
2021/09/26 09:04:52;;;;;;;13.05;8.75;;;17.90;99.90;;;;;;4980829;28;20672;-79
2021/09/26 09:07:19;;;;;;;10.80;8.50;;;17.90;99.90;;;;;;4966303;28;20046;-80
2021/09/26 09:09:49;;;;;;;12.23;8.18;;;17.90;99.90;;;;;;4978533;28;20043;-80
2021/09/26 09:12:17;;;;;;;12.55;8.40;;;18.00;99.90;;;;;;4981977;28;20061;-80
2021/09/26 09:14:52;;;;;;;12.95;8.00;;;18.10;99.90;;;;;;4986727;28;20051;-80
2021/09/26 09:17:26;;;;;;;15.20;7.75;;;18.20;99.90;;;;;;4979732;28;20432;-80
2021/09/26 09:20:22;;;;;;;10.25;7.10;;;18.30;99.90;;;;;;4987602;28;20567;-79
2021/09/26 09:22:57;;;;;;;10.27;7.05;;;18.40;99.90;;;;;;4974080;28;20853;-81
2021/09/26 09:25:40;;;;;;;12.43;7.40;;;18.40;99.90;;;;;;4981489;28;20113;-80
2021/09/26 09:28:28;;;;;;;10.45;6.53;;;18.40;99.90;;;;;;4981600;28;20050;-79
2021/09/26 09:30:59;;;;;;;9.27;6.57;;;18.40;99.90;;;;;;4979315;28;20133;-81
2021/09/26 09:34:05;;;;;;;10.73;6.78;;;18.40;99.90;;;;;;4982998;28;20050;-81
2021/09/26 09:36:32;;;;;;;9.07;6.68;;;18.40;99.90;;;;;;4982825;28;21031;-80
2021/09/26 09:39:09;;;;;;;9.20;6.35;;;18.50;99.90;;;;;;4983134;28;20570;-81
2021/09/26 09:41:41;;;;;;;7.97;5.63;;;18.70;99.90;;;;;;4979430;28;20046;-80
2021/09/26 09:44:15;;;;;;;7.65;5.20;;;18.80;99.90;;;;;;4975668;28;20420;-80
2021/09/26 09:46:47;;;;;;;9.75;5.75;;;19.00;99.90;;;;;;4981299;28;20694;-79
2021/09/26 09:53:17;;;;;;;10.23;5.65;;;19.40;99.90;;;;;;4920872;28;20048;-80
2021/09/26 09:56:26;;;;;;;6.82;4.40;;;19.60;99.90;;;;;;4932094;28;20059;-81
2021/09/26 09:59:13;;;;;;;9.68;4.40;;;19.80;99.90;;;;;;4973475;28;20277;-80
2021/09/26 10:01:40;;;;;;;6.43;3.40;;;19.90;99.90;;;;;;4991272;28;20049;-80
2021/09/26 10:04:21;;;;;;;7.05;3.83;;;19.90;99.90;;;;;;4953180;28;20078;-81
2021/09/26 10:06:52;;;;;;;5.95;3.67;;;20.00;99.90;;;;;;4999338;28;20061;-80
2021/09/26 10:09:24;;;;;;;4.60;3.70;;;20.10;99.90;;;;;;4997236;28;20046;-80
2021/09/26 10:12:00;;;;;;;5.32;3.08;;;20.20;99.90;;;;;;4997989;28;20041;-80
2021/09/26 10:14:29;;;;;;;4.35;3.03;;;20.30;99.90;;;;;;4982811;28;20396;-81
2021/09/26 10:17:05;;;;;;;5.55;2.65;;;20.40;99.90;;;;;;4998877;28;20125;-81
2021/09/26 10:35:50;;;;;;;4.35;1.70;;;20.50;99.90;;;;;;4906197;28;20538;-81
2021/09/26 10:38:23;;;;;;;5.35;1.50;;;20.60;99.90;;;;;;4797512;29;20104;-82
2021/09/26 10:41:16;;;;;;;2.50;1.10;;;20.60;99.90;;;;;;4848317;29;20060;-81
2021/09/26 10:43:47;;;;;;;2.83;1.45;;;20.60;99.90;;;;;;4847976;29;20080;-82
2021/09/26 10:46:29;;;;;;;3.40;1.25;;;20.50;99.90;;;;;;4859200;29;20052;-82
2021/09/26 10:48:56;;;;;;;5.50;1.60;;;20.60;99.90;;;;;;4872605;29;20614;-82
2021/09/26 10:51:48;;;;;;;4.70;1.70;;;20.60;99.90;;;;;;4871163;29;20110;-81
2021/09/26 10:54:21;;;;;;;2.70;1.38;;;20.70;99.90;;;;;;4880759;29;20063;-81
2021/09/26 10:57:03;;;;;;;3.25;1.30;;;20.70;99.90;;;;;;4863071;29;20535;-79
2021/09/26 10:59:47;;;;;;;3.72;1.30;;;20.70;99.90;;;;;;4843511;29;20053;-80
2021/09/26 11:02:42;;;;;;;3.53;1.40;;;20.80;99.90;;;;;;4854480;29;20057;-80
2021/09/26 11:05:33;;;;;;;4.43;1.60;;;20.80;99.90;;;;;;4867891;29;20053;-81
2021/09/26 11:11:54;;;;;;;3.93;1.10;;;20.90;99.90;;;;;;4835514;29;20045;-82
2021/09/26 11:14:29;;;;;;;3.08;1.20;;;21.00;99.90;;;;;;4920508;28;20278;-82
2021/09/26 11:17:01;;;;;;;5.18;1.92;;;21.00;99.90;;;;;;5015364;28;20059;-80
2021/09/26 11:19:28;;;;;;;5.03;1.90;;;21.00;99.90;;;;;;5026525;28;20049;-81
2021/09/26 11:22:04;;;;;;;3.50;1.50;;;21.00;99.90;;;;;;5026424;28;20072;-80
2021/09/26 11:24:37;;;;;;;2.05;0.90;;;21.00;99.90;;;;;;5037953;28;20054;-81
2021/09/26 11:27:08;;;;;;;4.20;0.70;;;21.00;99.90;;;;;;5040576;28;20053;-79
2021/09/26 11:29:38;;;;;;;5.88;1.30;;;20.90;99.90;;;;;;5043917;28;20049;-78
2021/09/26 11:32:27;;;;;;;3.58;0.85;;;20.80;99.90;;;;;;5040611;28;20052;-80
2021/09/26 11:34:57;;;;;;;4.57;0.88;;;20.80;99.90;;;;;;5051300;28;20048;-80
2021/09/26 11:37:39;;;;;;;4.50;1.10;;;20.80;99.90;;;;;;5046291;28;20108;-81
2021/09/26 11:40:12;;;;;;;3.90;1.10;;;20.80;99.90;;;;;;5038003;28;20045;-81
2021/09/26 11:42:41;;;;;;;3.47;0.98;;;20.80;99.90;;;;;;5040241;28;20062;-81
2021/09/26 11:45:11;;;;;;;5.00;1.10;;;20.90;99.90;;;;;;5042600;28;20079;-79
2021/09/26 11:47:38;;;;;;;2.47;1.20;;;20.90;99.90;;;;;;5037701;28;20049;-80
2021/09/26 11:50:11;;;;;;;5.00;1.67;;;21.00;99.90;;;;;;5041260;28;20059;-79
2021/09/26 11:52:42;;;;;;;4.95;1.35;;;21.00;99.90;;;;;;5047078;28;20045;-81
2021/09/26 11:55:11;;;;;;;3.47;1.10;;;21.00;99.90;;;;;;5029981;28;20486;-80
2021/09/26 11:57:38;;;;;;;5.28;1.00;;;21.00;99.90;;;;;;5044561;28;20049;-80
2021/09/26 12:00:07;;;;;;;4.13;1.00;;;21.00;99.90;;;;;;5016899;28;20049;-80
2021/09/26 12:02:35;;;;;;;2.95;1.20;;;21.00;99.90;;;;;;5025203;28;20037;-81
2021/09/26 12:05:05;;;;;;;5.15;1.20;;;21.00;99.90;;;;;;5029454;28;20048;-80
2021/09/26 12:07:32;;;;;;;2.80;0.73;;;21.10;99.90;;;;;;5028418;28;20522;-81
2021/09/26 12:09:59;;;;;;;1.63;0.82;;;21.10;99.90;;;;;;5016167;28;20048;-81
2021/09/26 12:12:28;;;;;;;3.60;1.05;;;21.20;99.90;;;;;;5016337;28;20060;-80
2021/09/26 12:15:05;;;;;;;4.18;1.30;;;21.30;99.90;;;;;;5029116;28;20045;-80
2021/09/26 12:17:36;;;;;;;4.68;1.10;;;21.30;99.90;;;;;;5021814;28;20451;-81
2021/09/26 12:20:11;;;;;;;4.32;1.10;;;21.40;99.90;;;;;;5046188;28;20053;-80
2021/09/26 12:22:59;;;;;;;5.85;1.38;;;21.40;99.90;;;;;;5016806;28;20045;-81
2021/09/26 12:34:52;;;;;;;5.90;1.05;;;21.40;99.90;;;;;;4850879;29;20107;-85
2021/09/26 12:37:27;;;;;;;5.85;1.40;;;21.40;99.90;;;;;;4888850;29;20044;-82
2021/09/26 12:39:58;;;;;;;4.13;1.00;;;21.40;99.90;;;;;;4913139;28;20051;-81
2021/09/26 12:42:30;;;;;;;5.60;1.15;;;21.50;99.90;;;;;;4956823;28;20070;-80
2021/09/26 12:45:10;;;;;;;4.28;1.00;;;21.50;99.90;;;;;;4969630;28;20055;-81
2021/09/26 12:47:39;;;;;;;3.60;1.02;;;21.60;99.90;;;;;;4958099;28;20055;-81
2021/09/26 12:50:06;;;;;;;7.45;1.40;;;21.60;99.90;;;;;;4970433;28;20064;-81
2021/09/26 12:52:34;;;;;;;6.50;1.10;;;21.70;99.90;;;;;;4978548;28;20054;-80
2021/09/26 12:55:08;;;;;;;5.05;1.38;;;21.70;99.90;;;;;;4973331;28;20086;-81
2021/09/26 12:57:38;;;;;;;2.92;0.70;;;21.70;99.90;;;;;;4973584;28;20058;-80
2021/09/26 13:00:33;;;;;;;5.88;1.15;;;21.60;99.90;;;;;;5032439;28;20114;-82
2021/09/26 13:03:52;;;;;;;5.75;1.40;;;21.60;99.90;;;;;;5016835;28;20517;-83
2021/09/26 13:06:51;;;;;;;6.47;1.30;;;21.60;99.90;;;;;;4968850;28;20046;-80
2021/09/26 13:09:31;;;;;;;5.82;1.40;;;21.60;99.90;;;;;;4967917;28;20054;-80
2021/09/26 13:12:29;;;;;;;4.55;1.02;;;21.60;99.90;;;;;;4970182;28;20460;-81
2021/09/26 13:15:21;;;;;;;3.97;1.05;;;21.70;99.90;;;;;;4969453;28;20046;-80
2021/09/26 13:17:52;;;;;;;4.30;1.00;;;21.60;99.90;;;;;;4952553;28;20058;-80
2021/09/26 13:20:34;;;;;;;3.97;1.30;;;21.60;99.90;;;;;;4955780;28;20046;-81
2021/09/26 13:23:24;;;;;;;8.35;1.25;;;21.70;99.90;;;;;;4963505;28;20055;-81
2021/09/26 13:26:01;;;;;;;5.65;1.33;;;21.70;99.90;;;;;;4964348;28;20054;-80
2021/09/26 13:28:30;;;;;;;4.07;1.17;;;21.70;99.90;;;;;;4966063;28;20606;-81
2021/09/26 13:31:38;;;;;;;4.75;1.10;;;21.70;99.90;;;;;;4956111;28;20141;-81
2021/09/26 13:34:10;;;;;;;5.53;0.80;;;21.80;99.90;;;;;;4921963;28;20042;-80
2021/09/26 13:36:50;;;;;;;5.93;1.27;;;21.80;99.90;;;;;;4952630;28;20039;-81
2021/09/26 13:39:41;;;;;;;4.90;0.93;;;21.80;99.90;;;;;;4936319;28;20050;-80
2021/09/26 13:42:10;;;;;;;;;;;21.90;99.90;;;;;;4968540;28;20512;-79
2021/09/26 13:44:38;;;;;;;4.55;1.17;;;22.00;99.90;;;;;;5010375;28;20328;-80
2021/09/26 13:47:05;;;;;;;3.67;0.90;;;22.00;99.90;;;;;;5032903;28;20045;-80
2021/09/26 13:49:33;;;;;;;4.45;1.10;;;21.90;99.90;;;;;;5017453;28;20049;-80
2021/09/26 13:52:00;;;;;;;5.15;1.42;;;21.90;99.90;;;;;;5008711;28;20096;-82
2021/09/26 13:54:29;;;;;;;4.45;1.30;;;21.90;99.90;;;;;;5015841;28;20076;-81
2021/09/26 13:56:59;;;;;;;3.78;0.80;;;22.00;99.90;;;;;;5022095;28;20045;-81
2021/09/26 13:59:29;;;;;;;6.55;1.00;;;22.00;99.90;;;;;;5003395;28;20071;-81
2021/09/26 14:02:07;;;;;;;4.13;0.90;;;22.00;99.90;;;;;;5025541;28;20057;-81
2021/09/26 14:04:43;;;;;;;3.58;0.90;;;22.00;99.90;;;;;;5007615;28;20053;-81
2021/09/26 14:07:17;;;;;;;2.75;0.90;;;22.00;99.90;;;;;;5038391;28;20224;-81
2021/09/26 14:09:44;;;;;;;7.07;1.45;;;22.00;99.90;;;;;;5012237;28;20091;-80
2021/09/26 14:12:20;;;;;;;3.78;0.88;;;22.10;99.90;;;;;;5015161;28;20049;-81
2021/09/26 14:14:49;;;;;;;5.28;1.33;;;22.10;99.90;;;;;;5025585;28;20056;-81
2021/09/26 14:17:18;;;;;;;4.55;1.23;;;22.10;99.90;;;;;;5022117;28;20053;-82
2021/09/26 14:19:45;;;;;;;5.72;1.10;;;22.00;99.90;;;;;;5012691;28;20057;-83
2021/09/26 14:22:14;;;;;;;5.97;1.00;;;22.00;99.90;;;;;;5013399;28;20496;-81
2021/09/26 14:24:43;;;;;;;4.93;0.98;;;22.00;99.90;;;;;;5023141;28;20092;-81
2021/09/26 14:27:11;;;;;;;6.05;1.17;;;22.00;99.90;;;;;;5032008;28;20805;-80
2021/09/26 14:29:45;;;;;;;3.70;0.95;;;21.90;99.90;;;;;;5038355;28;20094;-81
2021/09/26 14:32:15;;;;;;;4.68;0.90;;;21.90;99.90;;;;;;5042278;28;20049;-82
2021/09/26 14:34:45;;;;;;;4.97;1.10;;;21.80;99.90;;;;;;5040194;28;20041;-80
2021/09/26 14:37:14;;;;;;;4.38;0.90;;;21.80;99.90;;;;;;5044617;28;20050;-77
2021/09/26 14:39:41;;;;;;;6.65;1.10;;;21.70;99.90;;;;;;5049350;28;20073;-78
2021/09/26 14:42:09;;;;;;;6.50;1.33;;;21.70;99.90;;;;;;5050819;28;20053;-78
2021/09/26 14:44:36;;;;;;;4.65;1.10;;;21.70;99.90;;;;;;5051906;28;20045;-80
2021/09/26 14:47:03;;;;;;;4.60;1.23;;;21.60;99.90;;;;;;5039733;28;20044;-78
2021/09/26 14:49:31;;;;;;;5.87;1.00;;;21.70;99.90;;;;;;5053150;28;20040;-79
2021/09/26 14:51:58;;;;;;;6.28;1.05;;;21.70;99.90;;;;;;5060307;28;20718;-79
2021/09/26 14:54:25;;;;;;;6.28;1.40;;;21.70;99.90;;;;;;5047658;28;20045;-79
2021/09/26 14:56:52;;;;;;;4.63;0.85;;;21.70;99.90;;;;;;5047653;28;20049;-80
2021/09/26 14:59:20;;;;;;;4.63;0.93;;;21.70;99.90;;;;;;5047049;28;20091;-79
2021/09/26 15:01:47;;;;;;;3.17;0.85;;;21.60;99.90;;;;;;5047570;28;20041;-78
2021/09/26 15:04:15;;;;;;;6.05;1.10;;;21.50;99.90;;;;;;5045963;28;20514;-79
2021/09/26 15:06:42;;;;;;;5.90;1.10;;;21.50;99.90;;;;;;5047388;28;20095;-80
2021/09/26 15:09:10;;;;;;;6.53;1.25;;;21.40;99.90;;;;;;5047402;28;20094;-80
2021/09/26 15:11:39;;;;;;;6.28;1.30;;;21.40;99.90;;;;;;5046116;28;20092;-79
2021/09/26 15:14:07;;;;;;;5.45;1.23;;;21.30;99.90;;;;;;5047340;28;20394;-80
2021/09/26 15:16:35;;;;;;;4.07;1.00;;;21.30;99.90;;;;;;5049933;28;20072;-80
2021/09/26 15:19:04;;;;;;;8.60;1.20;;;21.20;99.90;;;;;;5050042;28;20528;-81
2021/09/26 15:21:32;;;;;;;6.47;1.13;;;21.20;99.90;;;;;;5051982;28;20099;-81
2021/09/26 15:24:00;;;;;;;;;;;21.20;99.90;;;;;;5050660;28;20076;-80
2021/09/26 15:26:28;;;;;;;5.53;1.50;;;21.10;99.90;;;;;;5048226;28;19978;-80
2021/09/26 15:28:55;;;;;;;4.90;1.30;;;21.10;99.90;;;;;;5050563;28;20073;-79
2021/09/26 15:31:23;;;;;;;6.80;1.25;;;21.10;99.90;;;;;;5054142;28;20045;-79
2021/09/26 15:33:52;;;;;;;6.40;1.50;;;21.10;99.90;;;;;;5051969;28;20512;-79
2021/09/26 15:36:20;;;;;;;6.78;1.27;;;21.10;99.90;;;;;;5049079;28;20099;-81
2021/09/26 15:38:48;;;;;;;5.35;1.27;;;21.10;99.90;;;;;;5051668;28;20037;-80
2021/09/26 15:41:15;;;;;;;4.97;1.20;;;21.00;99.90;;;;;;5051185;28;20463;-80
2021/09/26 15:43:42;;;;;;;7.22;1.10;;;20.90;99.90;;;;;;5051753;28;20041;-81
2021/09/26 15:46:11;;;;;;;7.28;1.40;;;20.90;99.90;;;;;;5050841;28;20044;-80
2021/09/26 15:48:38;;;;;;;;;;;20.90;99.90;;;;;;5048459;28;20116;-81
2021/09/26 15:51:05;;;;;;;6.82;1.40;;;20.90;99.90;;;;;;5051292;28;19925;-80
2021/09/26 15:53:33;;;;;;;5.93;1.02;;;20.90;99.90;;;;;;5051263;28;20049;-80
2021/09/26 15:56:01;;;;;;;6.47;1.30;;;20.80;99.90;;;;;;5050470;28;20468;-80
2021/09/26 15:58:28;;;;;;;4.07;1.17;;;20.80;99.90;;;;;;5050745;28;20118;-80
2021/09/26 16:00:57;;;;;;;6.47;1.42;;;20.70;99.90;;;;;;5058516;28;20041;-79
2021/09/26 16:03:25;;;;;;;7.18;1.50;;;20.60;99.90;;;;;;5051213;28;20123;-81
2021/09/26 16:05:53;;;;;;;5.82;1.20;;;20.60;99.90;;;;;;5050911;28;20045;-80
2021/09/26 16:08:20;;;;;;;7.03;1.40;;;20.60;99.90;;;;;;5050337;28;20052;-80
2021/09/26 16:10:50;;;;;;;7.80;1.52;;;20.60;99.90;;;;;;5051124;28;20048;-81
2021/09/26 16:13:17;;;;;;;8.75;1.75;;;20.50;99.90;;;;;;5051214;28;20045;-80
2021/09/26 16:15:46;;;;;;;8.48;2.00;;;20.50;99.90;;;;;;5051226;28;20095;-80
2021/09/26 16:18:16;;;;;;;7.05;1.50;;;20.50;99.90;;;;;;5049623;28;20512;-80
2021/09/26 16:20:44;;;;;;;4.70;1.15;;;20.40;99.90;;;;;;5050473;28;20496;-82
2021/09/26 16:23:14;;;;;;;6.70;1.52;;;20.40;99.90;;;;;;5029681;28;20115;-81
2021/09/26 16:25:43;;;;;;;8.85;1.60;;;20.30;99.90;;;;;;5046719;28;20045;-80
2021/09/26 16:28:11;;;;;;;7.93;1.45;;;20.30;99.90;;;;;;5013530;28;20046;-79
2021/09/26 16:30:42;;;;;;;8.10;1.50;;;20.30;99.90;;;;;;5033218;28;20497;-79
2021/09/26 16:33:12;;;;;;;6.22;1.70;;;20.20;99.90;;;;;;5016508;28;20042;-79
2021/09/26 16:35:39;;;;;;;10.43;1.80;;;20.20;99.90;;;;;;5005908;28;20046;-79
2021/09/26 16:38:06;;;;;;;12.02;1.80;;;20.20;99.90;;;;;;5004792;28;20054;-79
2021/09/26 16:40:34;;;;;;;13.70;1.98;;;20.20;99.90;;;;;;5012375;28;20049;-79
2021/09/26 16:43:04;;;;;;;7.00;1.50;;;20.10;99.90;;;;;;5015228;28;20050;-79
2021/09/26 16:45:35;;;;;;;9.57;1.65;;;20.10;99.90;;;;;;5024247;28;20053;-80
2021/09/26 16:48:03;;;;;;;10.15;1.70;;;20.10;99.90;;;;;;5010897;28;20680;-79
2021/09/26 16:50:32;;;;;;;12.05;2.25;;;20.10;99.90;;;;;;5014788;28;20041;-79
2021/09/26 16:53:00;;;;;;;12.32;1.65;;;20.00;99.90;;;;;;5014348;28;20096;-78
2021/09/26 16:55:28;;;;;;;8.57;1.80;;;20.10;99.90;;;;;;5017776;28;20061;-80
2021/09/26 16:57:55;;;;;;;9.80;1.57;;;20.00;99.90;;;;;;5018597;28;20088;-81
2021/09/26 17:00:23;;;;;;;8.95;1.95;;;20.10;99.90;;;;;;5000171;28;20267;-80
2021/09/26 17:02:54;;;;;;;8.43;1.80;;;20.10;99.90;;;;;;5011481;28;20038;-80
2021/09/26 17:05:23;;;;;;;8.73;2.25;;;20.10;99.90;;;;;;5009380;28;20320;-81
2021/09/26 17:07:49;;;;;;;;;;;20.10;99.90;;;;;;5020055;28;20399;-80
2021/09/26 17:10:19;;;;;;;12.57;2.05;;;20.10;99.90;;;;;;5017025;28;19925;-81
2021/09/26 17:12:48;;;;;;;9.65;2.00;;;20.10;99.90;;;;;;5008293;28;20057;-81
2021/09/26 17:15:17;;;;;;;7.80;1.90;;;20.00;99.90;;;;;;5009851;28;20053;-81
2021/09/26 17:17:44;;;;;;;9.80;2.00;;;20.00;99.90;;;;;;5006033;28;20073;-81
2021/09/26 17:20:17;;;;;;;9.63;1.92;;;20.00;99.90;;;;;;5007420;28;20087;-79
2021/09/26 17:22:45;;;;;;;11.27;2.33;;;20.00;99.90;;;;;;5014409;28;20102;-79
2021/09/26 17:25:13;;;;;;;13.77;2.03;;;19.90;99.90;;;;;;5009092;28;20144;-79
2021/09/26 17:27:40;;;;;;;9.10;2.22;;;19.90;99.90;;;;;;5016268;28;20504;-79
2021/09/26 17:30:10;;;;;;;11.13;2.30;;;19.90;99.90;;;;;;5021021;28;20068;-78
2021/09/26 17:32:40;;;;;;;10.45;2.00;;;19.80;99.90;;;;;;5042834;28;20555;-79
2021/09/26 17:35:09;;;;;;;11.38;1.90;;;19.70;99.90;;;;;;5041042;28;20127;-78
2021/09/26 17:37:36;;;;;;;11.68;1.90;;;19.70;99.90;;;;;;5023889;28;20134;-78
2021/09/26 17:40:04;;;;;;;9.57;2.20;;;19.70;99.90;;;;;;5041928;28;20072;-78
2021/09/26 17:42:31;;;;;;;11.73;1.98;;;19.60;99.90;;;;;;5036731;28;20599;-77
2021/09/26 17:44:58;;;;;;;12.80;2.03;;;19.60;99.90;;;;;;5041672;28;20578;-78
2021/09/26 17:47:25;;;;;;;11.88;2.17;;;19.50;99.90;;;;;;5038045;28;20061;-78
2021/09/26 17:49:52;;;;;;;11.60;2.45;;;19.50;99.90;;;;;;5043526;28;20045;-79
2021/09/26 17:52:19;;;;;;;12.82;2.05;;;19.40;99.90;;;;;;5039110;28;20049;-79
2021/09/26 17:54:46;;;;;;;12.60;2.33;;;19.40;99.90;;;;;;5043950;28;20053;-80
2021/09/26 17:57:13;;;;;;;14.32;2.35;;;19.40;99.90;;;;;;5039061;28;20073;-79
2021/09/26 17:59:40;;;;;;;12.50;2.45;;;19.30;99.90;;;;;;5043643;28;20052;-80
2021/09/26 18:02:07;;;;;;;10.50;2.38;;;19.30;99.90;;;;;;5022047;28;20048;-82
2021/09/26 18:04:46;;;;;;;10.38;1.98;;;19.30;99.90;;;;;;5023044;28;20056;-81
2021/09/26 18:07:32;;;;;;;15.20;2.70;;;19.20;99.90;;;;;;5024619;28;20076;-80
2021/09/26 18:10:38;;;;;;;11.85;1.88;;;19.20;99.90;;;;;;5032097;28;20194;-82
2021/09/26 18:13:29;;;;;;;15.52;2.78;;;19.20;99.90;;;;;;5021564;28;20041;-81
2021/09/26 18:16:24;;;;;;;11.93;2.35;;;19.10;99.90;;;;;;5048857;28;20041;-81
2021/09/26 18:19:17;;;;;;;12.27;2.13;;;19.10;99.90;;;;;;5043325;28;20072;-80
2021/09/26 18:21:48;;;;;;;10.85;2.20;;;19.10;99.90;;;;;;5033217;28;20049;-80
2021/09/26 18:25:24;;;;;;;;;;;;;;;;;;;;;
2021/09/26 18:28:06;;;;;;;10.38;2.42;;;19.00;99.90;;;;;;4976358;28;20052;-80
2021/09/26 18:31:03;;;;;;;11.95;2.38;;;19.00;99.90;;;;;;5010997;28;20148;-80
2021/09/26 18:33:38;;;;;;;12.23;2.05;;;19.00;99.90;;;;;;4999830;28;20055;-79
2021/09/26 18:36:13;;;;;;;14.50;2.33;;;19.00;99.90;;;;;;5037162;28;20055;-80
2021/09/26 18:38:43;;;;;;;13.20;2.40;;;18.90;99.90;;;;;;5039787;28;20057;-79
2021/09/26 18:41:21;;;;;;;10.45;1.90;;;18.90;99.90;;;;;;5038769;28;20052;-78
2021/09/26 18:43:49;;;;;;;9.73;1.88;;;18.90;99.90;;;;;;5036441;28;20092;-79
2021/09/26 18:46:17;;;;;;;14.68;2.55;;;18.90;99.90;;;;;;5038024;28;20053;-77
2021/09/26 18:48:45;;;;;;;14.00;2.60;;;18.90;99.90;;;;;;5048909;28;20040;-78
2021/09/26 18:51:16;;;;;;;14.77;2.92;;;18.90;99.90;;;;;;5042767;28;20468;-78
2021/09/26 18:53:44;;;;;;;11.80;2.60;;;18.90;99.90;;;;;;5039667;28;20045;-77
2021/09/26 18:56:17;;;;;;;15.68;2.55;;;18.90;99.90;;;;;;5040436;28;20045;-78
2021/09/26 18:58:45;;;;;;;13.07;2.42;;;18.80;99.90;;;;;;5035745;28;20081;-80
2021/09/26 19:01:13;;;;;;;13.95;2.42;;;18.80;99.90;;;;;;5036261;28;20122;-78
2021/09/26 19:03:41;;;;;;;11.10;2.40;;;18.80;99.90;;;;;;5036414;28;20591;-78
2021/09/26 19:06:08;;;;;;;15.50;2.65;;;18.90;99.90;;;;;;5032544;28;20111;-79
2021/09/26 19:08:36;;;;;;;15.35;2.42;;;18.80;99.90;;;;;;5032684;28;20052;-82
2021/09/26 19:11:06;;;;;;;15.50;2.60;;;18.80;99.90;;;;;;5036230;28;20798;-79
2021/09/26 19:13:34;;;;;;;15.07;2.35;;;18.80;99.90;;;;;;5033112;28;20323;-78
2021/09/26 19:16:01;;;;;;;15.68;2.95;;;18.80;99.90;;;;;;5041115;28;20076;-78
2021/09/26 19:18:30;;;;;;;18.03;3.43;;;18.80;99.90;;;;;;5032765;28;20489;-77
2021/09/26 19:20:58;;;;;;;16.17;2.55;;;18.80;99.90;;;;;;5020951;28;20045;-78
2021/09/26 19:23:25;;;;;;;15.98;3.03;;;18.80;99.90;;;;;;5022087;28;20107;-77
2021/09/26 19:25:54;;;;;;;19.30;2.83;;;18.80;99.90;;;;;;5034665;28;20041;-78
2021/09/26 19:28:27;;;;;;;19.20;3.38;;;18.80;99.90;;;;;;5035066;28;20053;-77
2021/09/26 19:30:57;;;;;;;17.63;2.47;;;18.80;99.90;;;;;;5034361;28;20045;-78
2021/09/26 19:33:24;;;;;;;16.85;3.13;;;18.80;99.90;;;;;;5032314;28;20089;-79
2021/09/26 19:35:51;;;;;;;17.55;3.00;;;18.80;99.90;;;;;;5040722;28;20084;-78
2021/09/26 19:38:18;;;;;;;11.80;2.70;;;18.80;99.90;;;;;;5031413;28;20041;-77
2021/09/26 19:40:46;;;;;;;18.17;3.05;;;18.80;99.90;;;;;;5034943;28;20119;-78